sensor_id;sensor_type;location;lat;lon;timestamp;P1;durP1;ratioP1;P2;durP2;ratioP2
20251;SDS011;10284;58.364;15.550;2023-01-15T00:00:45;8.75;;;1.80;;
20251;SDS011;10284;58.364;15.550;2023-01-15T00:03:11;5.57;;;1.88;;
20251;SDS011;10284;58.364;15.550;2023-01-15T00:05:36;2.03;;;1.42;;
20251;SDS011;10284;58.364;15.550;2023-01-15T00:08:02;5.68;;;1.55;;
20251;SDS011;10284;58.364;15.550;2023-01-15T00:10:27;2.78;;;1.50;;
20251;SDS011;10284;58.364;15.550;2023-01-15T00:12:52;1.73;;;1.40;;
20251;SDS011;10284;58.364;15.550;2023-01-15T00:15:18;7.93;;;1.60;;
20251;SDS011;10284;58.364;15.550;2023-01-15T00:17:43;1.85;;;1.23;;
20251;SDS011;10284;58.364;15.550;2023-01-15T00:20:09;1.23;;;0.90;;
20251;SDS011;10284;58.364;15.550;2023-01-15T00:22:35;2.08;;;1.33;;
20251;SDS011;10284;58.364;15.550;2023-01-15T00:25:00;4.15;;;1.40;;
20251;SDS011;10284;58.364;15.550;2023-01-15T00:27:45;3.55;;;1.20;;
20251;SDS011;10284;58.364;15.550;2023-01-15T00:30:11;3.83;;;1.20;;
20251;SDS011;10284;58.364;15.550;2023-01-15T00:32:38;2.97;;;1.27;;
20251;SDS011;10284;58.364;15.550;2023-01-15T00:35:05;1.52;;;0.98;;
20251;SDS011;10284;58.364;15.550;2023-01-15T00:37:31;3.28;;;1.20;;
20251;SDS011;10284;58.364;15.550;2023-01-15T00:39:56;1.25;;;0.80;;
20251;SDS011;10284;58.364;15.550;2023-01-15T00:42:21;2.35;;;1.00;;
20251;SDS011;10284;58.364;15.550;2023-01-15T00:44:47;2.92;;;1.15;;
20251;SDS011;10284;58.364;15.550;2023-01-15T00:47:12;2.30;;;0.90;;
20251;SDS011;10284;58.364;15.550;2023-01-15T00:49:42;7.13;;;1.10;;
20251;SDS011;10284;58.364;15.550;2023-01-15T00:52:08;1.38;;;0.73;;
20251;SDS011;10284;58.364;15.550;2023-01-15T00:54:33;2.53;;;0.70;;
20251;SDS011;10284;58.364;15.550;2023-01-15T00:56:59;2.45;;;0.70;;
20251;SDS011;10284;58.364;15.550;2023-01-15T00:59:24;1.23;;;0.60;;
20251;SDS011;10284;58.364;15.550;2023-01-15T01:01:50;1.08;;;0.77;;
20251;SDS011;10284;58.364;15.550;2023-01-15T01:04:15;1.38;;;0.85;;
20251;SDS011;10284;58.364;15.550;2023-01-15T01:06:41;1.08;;;0.73;;
20251;SDS011;10284;58.364;15.550;2023-01-15T01:09:07;0.98;;;0.70;;
20251;SDS011;10284;58.364;15.550;2023-01-15T01:11:37;0.65;;;0.65;;
20251;SDS011;10284;58.364;15.550;2023-01-15T01:14:02;2.25;;;0.60;;
20251;SDS011;10284;58.364;15.550;2023-01-15T01:16:30;0.52;;;0.52;;
20251;SDS011;10284;58.364;15.550;2023-01-15T01:18:57;1.08;;;0.70;;
20251;SDS011;10284;58.364;15.550;2023-01-15T01:21:24;1.38;;;0.75;;
20251;SDS011;10284;58.364;15.550;2023-01-15T01:23:50;1.38;;;0.60;;
20251;SDS011;10284;58.364;15.550;2023-01-15T01:26:16;2.17;;;0.75;;
20251;SDS011;10284;58.364;15.550;2023-01-15T01:28:41;1.27;;;0.73;;
20251;SDS011;10284;58.364;15.550;2023-01-15T01:31:07;1.05;;;0.90;;
20251;SDS011;10284;58.364;15.550;2023-01-15T01:33:33;0.82;;;0.60;;
20251;SDS011;10284;58.364;15.550;2023-01-15T01:35:59;1.50;;;0.73;;
20251;SDS011;10284;58.364;15.550;2023-01-15T01:38:25;1.23;;;0.85;;
20251;SDS011;10284;58.364;15.550;2023-01-15T01:40:50;0.70;;;0.60;;
20251;SDS011;10284;58.364;15.550;2023-01-15T01:43:20;0.80;;;0.70;;
20251;SDS011;10284;58.364;15.550;2023-01-15T01:45:55;1.38;;;0.70;;
20251;SDS011;10284;58.364;15.550;2023-01-15T01:48:25;1.17;;;0.70;;
20251;SDS011;10284;58.364;15.550;2023-01-15T01:50:54;2.20;;;0.73;;
20251;SDS011;10284;58.364;15.550;2023-01-15T01:53:22;1.17;;;0.60;;
20251;SDS011;10284;58.364;15.550;2023-01-15T01:55:52;0.82;;;0.60;;
20251;SDS011;10284;58.364;15.550;2023-01-15T01:58:18;1.13;;;0.60;;
20251;SDS011;10284;58.364;15.550;2023-01-15T02:00:45;0.60;;;0.60;;
20251;SDS011;10284;58.364;15.550;2023-01-15T02:03:12;0.55;;;0.50;;
20251;SDS011;10284;58.364;15.550;2023-01-15T02:05:43;0.47;;;0.47;;
20251;SDS011;10284;58.364;15.550;2023-01-15T02:08:11;0.88;;;0.50;;
20251;SDS011;10284;58.364;15.550;2023-01-15T02:10:37;0.50;;;0.50;;
20251;SDS011;10284;58.364;15.550;2023-01-15T02:13:07;0.70;;;0.50;;
20251;SDS011;10284;58.364;15.550;2023-01-15T02:15:45;0.40;;;0.40;;
20251;SDS011;10284;58.364;15.550;2023-01-15T02:20:45;0.40;;;0.40;;
20251;SDS011;10284;58.364;15.550;2023-01-15T02:28:44;0.35;;;0.30;;
20251;SDS011;10284;58.364;15.550;2023-01-15T02:31:12;0.82;;;0.40;;
20251;SDS011;10284;58.364;15.550;2023-01-15T02:33:50;0.40;;;0.40;;
20251;SDS011;10284;58.364;15.550;2023-01-15T02:36:19;0.35;;;0.35;;
20251;SDS011;10284;58.364;15.550;2023-01-15T02:38:47;0.47;;;0.30;;
20251;SDS011;10284;58.364;15.550;2023-01-15T02:41:14;1.58;;;0.50;;
20251;SDS011;10284;58.364;15.550;2023-01-15T02:43:43;1.27;;;0.45;;
20251;SDS011;10284;58.364;15.550;2023-01-15T02:46:09;0.30;;;0.30;;
20251;SDS011;10284;58.364;15.550;2023-01-15T02:48:35;0.30;;;0.30;;
20251;SDS011;10284;58.364;15.550;2023-01-15T02:51:05;0.30;;;0.30;;
20251;SDS011;10284;58.364;15.550;2023-01-15T02:53:33;0.50;;;0.50;;
20251;SDS011;10284;58.364;15.550;2023-01-15T02:56:03;0.32;;;0.30;;
20251;SDS011;10284;58.364;15.550;2023-01-15T02:58:32;0.88;;;0.50;;
20251;SDS011;10284;58.364;15.550;2023-01-15T03:01:00;0.82;;;0.40;;
20251;SDS011;10284;58.364;15.550;2023-01-15T03:03:43;0.55;;;0.40;;
20251;SDS011;10284;58.364;15.550;2023-01-15T03:08:45;0.35;;;0.30;;
20251;SDS011;10284;58.364;15.550;2023-01-15T03:11:14;0.20;;;0.20;;
20251;SDS011;10284;58.364;15.550;2023-01-15T03:21:57;0.30;;;0.30;;
20251;SDS011;10284;58.364;15.550;2023-01-15T03:26:58;0.30;;;0.30;;
20251;SDS011;10284;58.364;15.550;2023-01-15T03:29:26;0.30;;;0.30;;
20251;SDS011;10284;58.364;15.550;2023-01-15T03:31:54;0.30;;;0.30;;
20251;SDS011;10284;58.364;15.550;2023-01-15T03:34:19;0.40;;;0.40;;
20251;SDS011;10284;58.364;15.550;2023-01-15T03:36:45;0.47;;;0.20;;
20251;SDS011;10284;58.364;15.550;2023-01-15T03:39:10;0.20;;;0.20;;
20251;SDS011;10284;58.364;15.550;2023-01-15T03:45:12;0.30;;;0.30;;
20251;SDS011;10284;58.364;15.550;2023-01-15T03:47:50;0.22;;;0.22;;
20251;SDS011;10284;58.364;15.550;2023-01-15T03:53:10;0.32;;;0.32;;
20251;SDS011;10284;58.364;15.550;2023-01-15T04:00:46;0.40;;;0.40;;
20251;SDS011;10284;58.364;15.550;2023-01-15T04:03:13;0.32;;;0.30;;
20251;SDS011;10284;58.364;15.550;2023-01-15T04:05:40;0.22;;;0.22;;
20251;SDS011;10284;58.364;15.550;2023-01-15T04:08:06;1.70;;;0.38;;
20251;SDS011;10284;58.364;15.550;2023-01-15T04:10:34;0.70;;;0.30;;
20251;SDS011;10284;58.364;15.550;2023-01-15T04:12:59;0.30;;;0.30;;
20251;SDS011;10284;58.364;15.550;2023-01-15T04:15:24;0.75;;;0.30;;
20251;SDS011;10284;58.364;15.550;2023-01-15T04:17:50;0.93;;;0.30;;
20251;SDS011;10284;58.364;15.550;2023-01-15T04:20:16;0.25;;;0.25;;
20251;SDS011;10284;58.364;15.550;2023-01-15T04:22:42;1.33;;;0.43;;
20251;SDS011;10284;58.364;15.550;2023-01-15T04:25:07;0.47;;;0.30;;
20251;SDS011;10284;58.364;15.550;2023-01-15T04:27:33;0.20;;;0.20;;
20251;SDS011;10284;58.364;15.550;2023-01-15T04:29:59;1.25;;;0.30;;
20251;SDS011;10284;58.364;15.550;2023-01-15T04:32:24;0.38;;;0.30;;
20251;SDS011;10284;58.364;15.550;2023-01-15T04:34:49;0.30;;;0.30;;
20251;SDS011;10284;58.364;15.550;2023-01-15T04:37:16;1.15;;;0.30;;
20251;SDS011;10284;58.364;15.550;2023-01-15T04:39:41;0.30;;;0.30;;
20251;SDS011;10284;58.364;15.550;2023-01-15T04:42:11;0.30;;;0.30;;
20251;SDS011;10284;58.364;15.550;2023-01-15T04:44:56;1.35;;;0.25;;
20251;SDS011;10284;58.364;15.550;2023-01-15T04:47:21;0.45;;;0.30;;
20251;SDS011;10284;58.364;15.550;2023-01-15T04:49:47;0.35;;;0.28;;
20251;SDS011;10284;58.364;15.550;2023-01-15T04:52:13;0.40;;;0.30;;
20251;SDS011;10284;58.364;15.550;2023-01-15T04:54:39;0.88;;;0.30;;
20251;SDS011;10284;58.364;15.550;2023-01-15T04:57:04;0.90;;;0.40;;
20251;SDS011;10284;58.364;15.550;2023-01-15T04:59:30;1.33;;;0.40;;
20251;SDS011;10284;58.364;15.550;2023-01-15T05:01:55;1.25;;;0.40;;
20251;SDS011;10284;58.364;15.550;2023-01-15T05:04:21;1.48;;;0.60;;
20251;SDS011;10284;58.364;15.550;2023-01-15T05:06:46;4.88;;;0.50;;
20251;SDS011;10284;58.364;15.550;2023-01-15T05:09:11;4.35;;;0.60;;
20251;SDS011;10284;58.364;15.550;2023-01-15T05:11:37;4.35;;;0.70;;
20251;SDS011;10284;58.364;15.550;2023-01-15T05:14:04;2.72;;;0.63;;
20251;SDS011;10284;58.364;15.550;2023-01-15T05:16:29;5.07;;;0.88;;
20251;SDS011;10284;58.364;15.550;2023-01-15T05:18:59;5.28;;;0.95;;
20251;SDS011;10284;58.364;15.550;2023-01-15T05:21:30;4.20;;;0.77;;
20251;SDS011;10284;58.364;15.550;2023-01-15T05:23:58;4.25;;;0.77;;
20251;SDS011;10284;58.364;15.550;2023-01-15T05:26:25;11.32;;;1.02;;
20251;SDS011;10284;58.364;15.550;2023-01-15T05:28:54;5.20;;;0.90;;
20251;SDS011;10284;58.364;15.550;2023-01-15T05:31:21;5.43;;;1.05;;
20251;SDS011;10284;58.364;15.550;2023-01-15T05:33:48;6.53;;;1.10;;
20251;SDS011;10284;58.364;15.550;2023-01-15T05:36:15;7.55;;;1.20;;
20251;SDS011;10284;58.364;15.550;2023-01-15T05:38:43;7.00;;;1.10;;
20251;SDS011;10284;58.364;15.550;2023-01-15T05:41:09;9.95;;;1.30;;
20251;SDS011;10284;58.364;15.550;2023-01-15T05:43:55;5.30;;;1.35;;
20251;SDS011;10284;58.364;15.550;2023-01-15T05:46:23;9.73;;;1.00;;
20251;SDS011;10284;58.364;15.550;2023-01-15T05:48:48;5.97;;;1.00;;
20251;SDS011;10284;58.364;15.550;2023-01-15T05:51:14;6.05;;;1.45;;
20251;SDS011;10284;58.364;15.550;2023-01-15T05:53:40;9.48;;;1.42;;
20251;SDS011;10284;58.364;15.550;2023-01-15T05:56:05;8.60;;;1.75;;
20251;SDS011;10284;58.364;15.550;2023-01-15T05:58:31;15.05;;;1.67;;
20251;SDS011;10284;58.364;15.550;2023-01-15T06:00:57;6.22;;;1.05;;
20251;SDS011;10284;58.364;15.550;2023-01-15T06:03:22;9.15;;;1.33;;
20251;SDS011;10284;58.364;15.550;2023-01-15T06:05:49;10.07;;;1.42;;
20251;SDS011;10284;58.364;15.550;2023-01-15T06:08:15;6.10;;;1.00;;
20251;SDS011;10284;58.364;15.550;2023-01-15T06:10:43;9.35;;;1.20;;
20251;SDS011;10284;58.364;15.550;2023-01-15T06:13:09;9.10;;;1.40;;
20251;SDS011;10284;58.364;15.550;2023-01-15T06:15:34;10.15;;;1.60;;
20251;SDS011;10284;58.364;15.550;2023-01-15T06:17:59;7.95;;;1.65;;
20251;SDS011;10284;58.364;15.550;2023-01-15T06:20:25;11.77;;;1.25;;
20251;SDS011;10284;58.364;15.550;2023-01-15T06:22:51;7.95;;;0.98;;
20251;SDS011;10284;58.364;15.550;2023-01-15T06:25:16;8.07;;;1.33;;
20251;SDS011;10284;58.364;15.550;2023-01-15T06:27:41;6.72;;;1.10;;
20251;SDS011;10284;58.364;15.550;2023-01-15T06:30:09;7.72;;;1.60;;
20251;SDS011;10284;58.364;15.550;2023-01-15T06:32:35;4.55;;;1.33;;
20251;SDS011;10284;58.364;15.550;2023-01-15T06:35:01;8.18;;;1.52;;
20251;SDS011;10284;58.364;15.550;2023-01-15T06:37:26;8.25;;;1.27;;
20251;SDS011;10284;58.364;15.550;2023-01-15T06:39:51;9.48;;;1.35;;
20251;SDS011;10284;58.364;15.550;2023-01-15T06:42:17;7.53;;;1.52;;
20251;SDS011;10284;58.364;15.550;2023-01-15T06:45:01;7.68;;;1.10;;
20251;SDS011;10284;58.364;15.550;2023-01-15T06:47:45;6.50;;;1.38;;
20251;SDS011;10284;58.364;15.550;2023-01-15T06:50:11;10.63;;;1.40;;
20251;SDS011;10284;58.364;15.550;2023-01-15T06:52:37;10.93;;;1.50;;
20251;SDS011;10284;58.364;15.550;2023-01-15T06:55:03;11.57;;;1.60;;
20251;SDS011;10284;58.364;15.550;2023-01-15T06:57:29;11.10;;;1.73;;
20251;SDS011;10284;58.364;15.550;2023-01-15T06:59:54;7.82;;;1.70;;
20251;SDS011;10284;58.364;15.550;2023-01-15T07:02:19;7.55;;;1.60;;
20251;SDS011;10284;58.364;15.550;2023-01-15T07:04:46;10.10;;;1.55;;
20251;SDS011;10284;58.364;15.550;2023-01-15T07:07:12;6.53;;;1.80;;
20251;SDS011;10284;58.364;15.550;2023-01-15T07:09:39;10.30;;;1.17;;
20251;SDS011;10284;58.364;15.550;2023-01-15T07:12:04;7.03;;;1.50;;
20251;SDS011;10284;58.364;15.550;2023-01-15T07:14:30;10.57;;;1.65;;
20251;SDS011;10284;58.364;15.550;2023-01-15T07:16:56;8.63;;;1.70;;
20251;SDS011;10284;58.364;15.550;2023-01-15T07:19:23;8.30;;;1.83;;
20251;SDS011;10284;58.364;15.550;2023-01-15T07:21:48;8.73;;;1.42;;
20251;SDS011;10284;58.364;15.550;2023-01-15T07:24:14;13.40;;;1.65;;
20251;SDS011;10284;58.364;15.550;2023-01-15T07:26:41;13.85;;;1.60;;
20251;SDS011;10284;58.364;15.550;2023-01-15T07:29:07;14.55;;;1.92;;
20251;SDS011;10284;58.364;15.550;2023-01-15T07:31:32;6.60;;;1.73;;
20251;SDS011;10284;58.364;15.550;2023-01-15T07:33:58;15.50;;;1.77;;
20251;SDS011;10284;58.364;15.550;2023-01-15T07:36:24;10.27;;;1.92;;
20251;SDS011;10284;58.364;15.550;2023-01-15T07:38:49;13.77;;;2.40;;
20251;SDS011;10284;58.364;15.550;2023-01-15T07:41:15;5.90;;;1.30;;
20251;SDS011;10284;58.364;15.550;2023-01-15T07:43:59;13.90;;;1.60;;
20251;SDS011;10284;58.364;15.550;2023-01-15T07:46:43;10.23;;;1.75;;
20251;SDS011;10284;58.364;15.550;2023-01-15T07:49:27;8.20;;;1.50;;
20251;SDS011;10284;58.364;15.550;2023-01-15T07:52:14;10.55;;;1.50;;
20251;SDS011;10284;58.364;15.550;2023-01-15T07:54:44;11.60;;;1.80;;
20251;SDS011;10284;58.364;15.550;2023-01-15T07:57:11;13.68;;;1.77;;
20251;SDS011;10284;58.364;15.550;2023-01-15T07:59:38;13.60;;;1.77;;
20251;SDS011;10284;58.364;15.550;2023-01-15T08:02:03;7.82;;;2.00;;
20251;SDS011;10284;58.364;15.550;2023-01-15T08:04:29;9.57;;;1.80;;
20251;SDS011;10284;58.364;15.550;2023-01-15T08:06:54;14.48;;;2.00;;
20251;SDS011;10284;58.364;15.550;2023-01-15T08:09:20;14.10;;;2.30;;
20251;SDS011;10284;58.364;15.550;2023-01-15T08:11:45;11.10;;;2.58;;
20251;SDS011;10284;58.364;15.550;2023-01-15T08:14:29;20.88;;;2.40;;
20251;SDS011;10284;58.364;15.550;2023-01-15T08:17:13;12.23;;;2.05;;
20251;SDS011;10284;58.364;15.550;2023-01-15T08:19:39;13.73;;;1.70;;
20251;SDS011;10284;58.364;15.550;2023-01-15T08:22:04;11.57;;;1.80;;
20251;SDS011;10284;58.364;15.550;2023-01-15T08:24:29;19.17;;;2.05;;
20251;SDS011;10284;58.364;15.550;2023-01-15T08:26:55;12.18;;;1.80;;
20251;SDS011;10284;58.364;15.550;2023-01-15T08:29:20;17.58;;;1.77;;
20251;SDS011;10284;58.364;15.550;2023-01-15T08:31:46;14.18;;;1.95;;
20251;SDS011;10284;58.364;15.550;2023-01-15T08:34:12;12.50;;;1.98;;
20251;SDS011;10284;58.364;15.550;2023-01-15T08:36:37;18.33;;;2.70;;
20251;SDS011;10284;58.364;15.550;2023-01-15T08:39:03;12.32;;;2.20;;
20251;SDS011;10284;58.364;15.550;2023-01-15T08:41:29;14.75;;;2.15;;
20251;SDS011;10284;58.364;15.550;2023-01-15T08:43:55;9.27;;;1.70;;
20251;SDS011;10284;58.364;15.550;2023-01-15T08:46:20;13.98;;;2.40;;
20251;SDS011;10284;58.364;15.550;2023-01-15T08:48:45;9.35;;;1.92;;
20251;SDS011;10284;58.364;15.550;2023-01-15T08:51:12;9.77;;;1.92;;
20251;SDS011;10284;58.364;15.550;2023-01-15T08:53:38;18.20;;;2.50;;
20251;SDS011;10284;58.364;15.550;2023-01-15T08:56:03;12.30;;;2.08;;
20251;SDS011;10284;58.364;15.550;2023-01-15T08:58:30;13.82;;;2.00;;
20251;SDS011;10284;58.364;15.550;2023-01-15T09:01:02;15.20;;;2.33;;
20251;SDS011;10284;58.364;15.550;2023-01-15T09:03:31;16.17;;;2.20;;
20251;SDS011;10284;58.364;15.550;2023-01-15T09:05:58;11.27;;;2.35;;
20251;SDS011;10284;58.364;15.550;2023-01-15T09:08:23;15.00;;;2.30;;
20251;SDS011;10284;58.364;15.550;2023-01-15T09:10:49;12.30;;;2.10;;
20251;SDS011;10284;58.364;15.550;2023-01-15T09:13:15;14.43;;;2.70;;
20251;SDS011;10284;58.364;15.550;2023-01-15T09:15:40;9.82;;;1.85;;
20251;SDS011;10284;58.364;15.550;2023-01-15T09:18:06;11.15;;;2.55;;
20251;SDS011;10284;58.364;15.550;2023-01-15T09:20:34;17.02;;;2.70;;
20251;SDS011;10284;58.364;15.550;2023-01-15T09:23:00;12.40;;;2.30;;
20251;SDS011;10284;58.364;15.550;2023-01-15T09:25:25;12.10;;;2.15;;
20251;SDS011;10284;58.364;15.550;2023-01-15T09:27:53;13.00;;;2.58;;
20251;SDS011;10284;58.364;15.550;2023-01-15T09:30:20;10.77;;;1.60;;
20251;SDS011;10284;58.364;15.550;2023-01-15T09:32:45;12.10;;;2.60;;
20251;SDS011;10284;58.364;15.550;2023-01-15T09:35:11;11.82;;;2.63;;
20251;SDS011;10284;58.364;15.550;2023-01-15T09:37:37;12.90;;;2.28;;
20251;SDS011;10284;58.364;15.550;2023-01-15T09:40:03;8.05;;;2.17;;
20251;SDS011;10284;58.364;15.550;2023-01-15T09:43:03;16.67;;;2.65;;
20251;SDS011;10284;58.364;15.550;2023-01-15T09:45:43;13.63;;;2.42;;
20251;SDS011;10284;58.364;15.550;2023-01-15T09:51:33;10.38;;;1.88;;
20251;SDS011;10284;58.364;15.550;2023-01-15T09:54:31;14.02;;;2.70;;
20251;SDS011;10284;58.364;15.550;2023-01-15T09:56:58;15.40;;;2.30;;
20251;SDS011;10284;58.364;15.550;2023-01-15T09:59:34;10.15;;;2.92;;
20251;SDS011;10284;58.364;15.550;2023-01-15T10:02:01;15.35;;;2.78;;
20251;SDS011;10284;58.364;15.550;2023-01-15T10:04:45;12.77;;;2.60;;
20251;SDS011;10284;58.364;15.550;2023-01-15T10:09:49;8.63;;;2.15;;
20251;SDS011;10284;58.364;15.550;2023-01-15T10:12:23;15.20;;;2.88;;
20251;SDS011;10284;58.364;15.550;2023-01-15T10:17:41;16.80;;;2.50;;
20251;SDS011;10284;58.364;15.550;2023-01-15T10:20:51;13.73;;;2.25;;
20251;SDS011;10284;58.364;15.550;2023-01-15T10:25:47;12.45;;;2.40;;
20251;SDS011;10284;58.364;15.550;2023-01-15T10:28:18;15.00;;;2.60;;
20251;SDS011;10284;58.364;15.550;2023-01-15T10:30:49;12.75;;;2.13;;
20251;SDS011;10284;58.364;15.550;2023-01-15T10:36:04;13.63;;;2.40;;
20251;SDS011;10284;58.364;15.550;2023-01-15T10:43:57;8.32;;;2.08;;
20251;SDS011;10284;58.364;15.550;2023-01-15T10:46:27;10.43;;;2.38;;
20251;SDS011;10284;58.364;15.550;2023-01-15T10:49:11;19.17;;;2.58;;
20251;SDS011;10284;58.364;15.550;2023-01-15T10:59:20;13.18;;;1.80;;
20251;SDS011;10284;58.364;15.550;2023-01-15T11:01:53;8.63;;;1.70;;
20251;SDS011;10284;58.364;15.550;2023-01-15T11:04:19;7.68;;;2.08;;
20251;SDS011;10284;58.364;15.550;2023-01-15T11:06:44;10.88;;;2.17;;
20251;SDS011;10284;58.364;15.550;2023-01-15T11:09:19;9.68;;;2.03;;
20251;SDS011;10284;58.364;15.550;2023-01-15T11:11:48;8.18;;;1.52;;
20251;SDS011;10284;58.364;15.550;2023-01-15T11:14:57;10.68;;;1.90;;
20251;SDS011;10284;58.364;15.550;2023-01-15T11:17:35;10.07;;;2.05;;
20251;SDS011;10284;58.364;15.550;2023-01-15T11:20:29;10.32;;;1.73;;
20251;SDS011;10284;58.364;15.550;2023-01-15T11:23:05;15.35;;;2.30;;
20251;SDS011;10284;58.364;15.550;2023-01-15T11:25:32;15.73;;;2.70;;
20251;SDS011;10284;58.364;15.550;2023-01-15T11:27:58;12.55;;;1.73;;
20251;SDS011;10284;58.364;15.550;2023-01-15T11:30:33;12.02;;;2.45;;
20251;SDS011;10284;58.364;15.550;2023-01-15T11:33:04;10.43;;;1.80;;
20251;SDS011;10284;58.364;15.550;2023-01-15T11:35:31;10.20;;;2.08;;
20251;SDS011;10284;58.364;15.550;2023-01-15T11:38:15;8.18;;;2.17;;
20251;SDS011;10284;58.364;15.550;2023-01-15T11:40:50;11.27;;;1.60;;
20251;SDS011;10284;58.364;15.550;2023-01-15T11:43:21;11.63;;;1.85;;
20251;SDS011;10284;58.364;15.550;2023-01-15T11:46:22;5.28;;;1.60;;
20251;SDS011;10284;58.364;15.550;2023-01-15T11:49:09;9.57;;;1.70;;
20251;SDS011;10284;58.364;15.550;2023-01-15T11:51:54;5.38;;;1.70;;
20251;SDS011;10284;58.364;15.550;2023-01-15T11:54:22;12.60;;;1.88;;
20251;SDS011;10284;58.364;15.550;2023-01-15T11:56:49;8.73;;;1.30;;
20251;SDS011;10284;58.364;15.550;2023-01-15T11:59:15;11.05;;;1.90;;
20251;SDS011;10284;58.364;15.550;2023-01-15T12:01:59;9.02;;;1.73;;
20251;SDS011;10284;58.364;15.550;2023-01-15T12:12:26;13.63;;;1.67;;
20251;SDS011;10284;58.364;15.550;2023-01-15T12:18:06;10.43;;;2.03;;
20251;SDS011;10284;58.364;15.550;2023-01-15T12:28:29;9.85;;;1.80;;
20251;SDS011;10284;58.364;15.550;2023-01-15T12:33:52;8.50;;;2.08;;
20251;SDS011;10284;58.364;15.550;2023-01-15T12:36:23;8.15;;;1.65;;
20251;SDS011;10284;58.364;15.550;2023-01-15T12:41:34;9.75;;;2.40;;
20251;SDS011;10284;58.364;15.550;2023-01-15T12:44:26;10.50;;;2.25;;
20251;SDS011;10284;58.364;15.550;2023-01-15T12:47:37;9.90;;;2.53;;
20251;SDS011;10284;58.364;15.550;2023-01-15T12:50:27;13.57;;;1.90;;
20251;SDS011;10284;58.364;15.550;2023-01-15T12:53:05;8.55;;;2.08;;
20251;SDS011;10284;58.364;15.550;2023-01-15T12:55:45;8.70;;;1.70;;
20251;SDS011;10284;58.364;15.550;2023-01-15T13:04:10;9.52;;;2.15;;
20251;SDS011;10284;58.364;15.550;2023-01-15T13:06:48;15.43;;;2.63;;
20251;SDS011;10284;58.364;15.550;2023-01-15T13:11:53;12.80;;;1.67;;
20251;SDS011;10284;58.364;15.550;2023-01-15T13:14:19;10.85;;;1.85;;
20251;SDS011;10284;58.364;15.550;2023-01-15T13:22:26;10.75;;;1.60;;
20251;SDS011;10284;58.364;15.550;2023-01-15T13:33:03;16.10;;;2.13;;
20251;SDS011;10284;58.364;15.550;2023-01-15T13:35:46;12.45;;;1.85;;
20251;SDS011;10284;58.364;15.550;2023-01-15T13:38:17;9.45;;;1.60;;
20251;SDS011;10284;58.364;15.550;2023-01-15T13:40:45;11.55;;;1.83;;
20251;SDS011;10284;58.364;15.550;2023-01-15T13:43:26;8.98;;;1.75;;
20251;SDS011;10284;58.364;15.550;2023-01-15T13:45:58;10.15;;;1.95;;
20251;SDS011;10284;58.364;15.550;2023-01-15T13:48:27;13.25;;;2.10;;
20251;SDS011;10284;58.364;15.550;2023-01-15T13:50:56;13.63;;;2.30;;
20251;SDS011;10284;58.364;15.550;2023-01-15T13:53:45;10.57;;;1.80;;
20251;SDS011;10284;58.364;15.550;2023-01-15T13:56:10;12.60;;;2.05;;
20251;SDS011;10284;58.364;15.550;2023-01-15T13:58:39;13.23;;;2.38;;
20251;SDS011;10284;58.364;15.550;2023-01-15T14:09:01;7.82;;;2.03;;
20251;SDS011;10284;58.364;15.550;2023-01-15T14:14:19;15.55;;;2.13;;
20251;SDS011;10284;58.364;15.550;2023-01-15T14:36:28;9.55;;;1.77;;
20251;SDS011;10284;58.364;15.550;2023-01-15T14:38:56;13.57;;;1.80;;
20251;SDS011;10284;58.364;15.550;2023-01-15T14:41:30;11.65;;;2.17;;
20251;SDS011;10284;58.364;15.550;2023-01-15T14:44:18;11.77;;;2.38;;
20251;SDS011;10284;58.364;15.550;2023-01-15T14:46:54;12.32;;;2.03;;
20251;SDS011;10284;58.364;15.550;2023-01-15T14:49:29;14.35;;;2.55;;
20251;SDS011;10284;58.364;15.550;2023-01-15T14:51:55;10.20;;;2.10;;
20251;SDS011;10284;58.364;15.550;2023-01-15T14:54:22;12.05;;;1.85;;
20251;SDS011;10284;58.364;15.550;2023-01-15T14:56:49;12.05;;;2.10;;
20251;SDS011;10284;58.364;15.550;2023-01-15T15:01:51;10.15;;;2.38;;
20251;SDS011;10284;58.364;15.550;2023-01-15T15:04:23;9.30;;;1.60;;
20251;SDS011;10284;58.364;15.550;2023-01-15T15:07:04;12.68;;;2.08;;
20251;SDS011;10284;58.364;15.550;2023-01-15T15:09:44;12.90;;;2.10;;
20251;SDS011;10284;58.364;15.550;2023-01-15T15:12:25;8.63;;;1.90;;
20251;SDS011;10284;58.364;15.550;2023-01-15T15:15:00;11.18;;;2.20;;
20251;SDS011;10284;58.364;15.550;2023-01-15T15:17:30;12.48;;;2.03;;
20251;SDS011;10284;58.364;15.550;2023-01-15T15:20:06;14.48;;;2.05;;
20251;SDS011;10284;58.364;15.550;2023-01-15T15:22:42;8.05;;;1.85;;
20251;SDS011;10284;58.364;15.550;2023-01-15T15:25:09;12.50;;;1.90;;
20251;SDS011;10284;58.364;15.550;2023-01-15T15:27:42;15.07;;;2.00;;
20251;SDS011;10284;58.364;15.550;2023-01-15T15:30:09;13.25;;;2.03;;
20251;SDS011;10284;58.364;15.550;2023-01-15T15:32:35;11.40;;;2.00;;
20251;SDS011;10284;58.364;15.550;2023-01-15T15:35:04;10.85;;;2.30;;
20251;SDS011;10284;58.364;15.550;2023-01-15T15:37:46;8.27;;;1.80;;
20251;SDS011;10284;58.364;15.550;2023-01-15T15:40:14;10.65;;;1.70;;
20251;SDS011;10284;58.364;15.550;2023-01-15T15:43:00;9.48;;;3.47;;
20251;SDS011;10284;58.364;15.550;2023-01-15T15:45:58;9.88;;;2.00;;
20251;SDS011;10284;58.364;15.550;2023-01-15T15:48:43;11.13;;;2.40;;
20251;SDS011;10284;58.364;15.550;2023-01-15T15:54:05;8.38;;;1.80;;
20251;SDS011;10284;58.364;15.550;2023-01-15T15:56:33;16.05;;;4.72;;
20251;SDS011;10284;58.364;15.550;2023-01-15T15:58:59;14.50;;;3.95;;
20251;SDS011;10284;58.364;15.550;2023-01-15T16:01:25;10.15;;;3.42;;
20251;SDS011;10284;58.364;15.550;2023-01-15T16:03:50;7.15;;;3.40;;
20251;SDS011;10284;58.364;15.550;2023-01-15T16:06:20;9.05;;;3.50;;
20251;SDS011;10284;58.364;15.550;2023-01-15T16:08:53;18.10;;;7.13;;
20251;SDS011;10284;58.364;15.550;2023-01-15T16:11:20;17.27;;;5.57;;
20251;SDS011;10284;58.364;15.550;2023-01-15T16:13:48;13.05;;;3.33;;
20251;SDS011;10284;58.364;15.550;2023-01-15T16:16:15;14.82;;;4.35;;
20251;SDS011;10284;58.364;15.550;2023-01-15T16:18:42;12.63;;;4.10;;
20251;SDS011;10284;58.364;15.550;2023-01-15T16:21:09;8.93;;;3.00;;
20251;SDS011;10284;58.364;15.550;2023-01-15T16:23:36;8.75;;;2.25;;
20251;SDS011;10284;58.364;15.550;2023-01-15T16:28:46;11.60;;;2.80;;
20251;SDS011;10284;58.364;15.550;2023-01-15T16:31:17;8.07;;;2.10;;
20251;SDS011;10284;58.364;15.550;2023-01-15T16:33:43;8.30;;;1.80;;
20251;SDS011;10284;58.364;15.550;2023-01-15T16:36:08;9.38;;;2.15;;
20251;SDS011;10284;58.364;15.550;2023-01-15T16:38:40;6.95;;;1.67;;
20251;SDS011;10284;58.364;15.550;2023-01-15T16:41:15;6.70;;;2.10;;
20251;SDS011;10284;58.364;15.550;2023-01-15T16:43:48;9.45;;;1.83;;
20251;SDS011;10284;58.364;15.550;2023-01-15T16:46:18;7.00;;;1.88;;
20251;SDS011;10284;58.364;15.550;2023-01-15T16:48:44;9.38;;;2.05;;
20251;SDS011;10284;58.364;15.550;2023-01-15T16:53:57;12.50;;;2.75;;
20251;SDS011;10284;58.364;15.550;2023-01-15T16:59:02;6.53;;;2.00;;
20251;SDS011;10284;58.364;15.550;2023-01-15T17:04:14;9.18;;;2.00;;
20251;SDS011;10284;58.364;15.550;2023-01-15T17:06:42;8.88;;;2.38;;
20251;SDS011;10284;58.364;15.550;2023-01-15T17:09:09;6.85;;;1.50;;
20251;SDS011;10284;58.364;15.550;2023-01-15T17:11:38;11.55;;;2.97;;
20251;SDS011;10284;58.364;15.550;2023-01-15T17:16:41;9.43;;;2.80;;
20251;SDS011;10284;58.364;15.550;2023-01-15T17:19:08;10.68;;;4.13;;